createdAt,value
2017-10-16T00:00:30.246Z,99.90
2017-10-16T00:05:32.124Z,99.90
2017-10-16T00:10:34.001Z,99.90
2017-10-16T00:15:35.880Z,99.90
2017-10-16T00:20:37.971Z,99.90
2017-10-16T00:25:39.942Z,99.90
2017-10-16T00:30:41.819Z,99.90
2017-10-16T00:35:43.696Z,99.90
2017-10-16T00:40:45.581Z,99.90
2017-10-16T00:45:50.320Z,99.90
2017-10-16T00:50:52.196Z,99.90
2017-10-16T00:55:54.279Z,99.90
2017-10-16T01:00:56.361Z,99.90
2017-10-16T01:05:58.239Z,99.90
2017-10-16T01:11:00.321Z,99.90
2017-10-16T01:16:03.530Z,99.90
2017-10-16T01:21:05.613Z,99.90
2017-10-16T01:26:07.694Z,99.90
2017-10-16T01:31:09.880Z,99.90
2017-10-16T01:36:12.986Z,99.90
2017-10-16T01:41:15.068Z,99.90
2017-10-16T01:46:17.965Z,99.90
2017-10-16T01:51:20.974Z,99.90
2017-10-16T01:56:24.160Z,99.90
2017-10-16T02:01:26.367Z,99.90
2017-10-16T02:06:28.450Z,99.90
2017-10-16T02:11:30.327Z,99.90
2017-10-16T02:16:32.208Z,99.90
2017-10-16T02:21:34.187Z,99.90
2017-10-16T02:26:36.062Z,99.90
2017-10-16T02:31:38.964Z,99.90
2017-10-16T02:36:44.852Z,99.90
2017-10-16T02:41:49.447Z,99.90
2017-10-16T02:46:53.260Z,99.90
2017-10-16T02:51:58.973Z,99.90
2017-10-16T02:57:01.772Z,99.90
2017-10-16T03:02:06.018Z,99.90
2017-10-16T03:07:08.681Z,99.90
2017-10-16T03:12:11.341Z,99.90
2017-10-16T03:17:13.810Z,99.90
2017-10-16T03:22:16.328Z,99.90
2017-10-16T03:27:19.036Z,99.90
2017-10-16T03:32:21.053Z,99.90
2017-10-16T03:37:22.932Z,99.90
2017-10-16T03:42:24.911Z,99.90
2017-10-16T03:47:26.996Z,99.90
2017-10-16T03:52:29.076Z,99.90
2017-10-16T03:57:30.955Z,99.90
2017-10-16T04:02:38.360Z,99.90
2017-10-16T04:07:40.444Z,99.90
2017-10-16T04:12:42.320Z,99.90
2017-10-16T04:17:44.403Z,99.90
2017-10-16T04:22:46.260Z,99.90
2017-10-16T04:27:48.162Z,99.90
2017-10-16T04:32:50.036Z,99.90
2017-10-16T04:37:51.914Z,99.90
2017-10-16T04:42:54.406Z,99.90
2017-10-16T04:47:56.282Z,99.90
2017-10-16T04:52:58.160Z,99.90
2017-10-16T04:58:00.038Z,99.90
2017-10-16T05:03:01.918Z,99.90
2017-10-16T05:08:03.794Z,99.90
2017-10-16T05:13:05.671Z,99.90
2017-10-16T05:18:07.555Z,99.90
2017-10-16T16:55:20.788Z,73.80
2017-10-16T17:00:21.842Z,73.80
2017-10-16T17:05:22.897Z,74.30
2017-10-16T17:10:24.981Z,72.70
2017-10-16T17:15:26.030Z,72.40
2017-10-16T17:20:27.098Z,72.30
2017-10-16T17:25:28.168Z,72.60
2017-10-16T17:30:29.222Z,72.50
2017-10-16T17:35:30.282Z,72.70
2017-10-16T17:40:31.357Z,71.90
2017-10-16T17:45:32.492Z,72.20
2017-10-16T17:50:38.558Z,73.60
2017-10-16T17:55:40.645Z,73.70
2017-10-16T18:00:41.709Z,74.50
2017-10-16T18:05:42.765Z,73.70
2017-10-16T18:10:45.881Z,74.00
2017-10-16T18:15:46.924Z,73.40
2017-10-16T18:20:48.007Z,72.90
2017-10-16T18:25:49.151Z,71.40
2017-10-16T18:30:50.229Z,70.60
2017-10-16T18:35:52.311Z,72.20
2017-10-16T18:40:53.355Z,74.00
2017-10-16T18:45:55.422Z,75.30
2017-10-16T18:50:58.551Z,75.80
2017-10-16T18:56:00.642Z,76.00
2017-10-16T19:01:01.703Z,76.30
2017-10-16T19:06:02.745Z,77.90
2017-10-16T19:11:05.766Z,78.40
2017-10-16T19:16:06.848Z,77.10
2017-10-16T19:21:08.923Z,77.90
2017-10-16T19:26:09.929Z,80.10
2017-10-16T19:31:13.065Z,77.60
2017-10-16T19:36:14.116Z,79.10
2017-10-16T19:41:15.162Z,84.30
2017-10-16T19:46:17.271Z,86.20
2017-10-16T19:51:19.326Z,86.30
2017-10-16T19:56:20.401Z,88.50
2017-10-16T20:01:22.486Z,86.40
2017-10-16T20:06:23.642Z,86.50
2017-10-16T20:11:24.692Z,87.50
2017-10-16T20:16:26.785Z,87.90
2017-10-16T20:21:27.929Z,87.90
2017-10-16T20:26:29.002Z,87.50
2017-10-16T20:31:31.186Z,88.10
2017-10-16T20:36:34.189Z,88.80
2017-10-16T20:41:35.242Z,89.70
2017-10-16T20:46:38.353Z,89.90
2017-10-16T20:51:39.454Z,88.40
2017-10-16T20:56:41.493Z,87.80
2017-10-16T21:01:42.568Z,87.50
2017-10-16T21:06:43.727Z,87.80
2017-10-16T21:11:44.774Z,88.30
2017-10-16T21:16:46.845Z,88.70
2017-10-16T21:21:48.954Z,89.80
2017-10-16T21:26:49.984Z,90.40
2017-10-16T21:31:51.052Z,90.20
2017-10-16T21:36:53.130Z,90.20
2017-10-16T21:41:54.297Z,89.20
2017-10-16T21:46:55.358Z,87.80
2017-10-16T21:52:08.499Z,87.50
2017-10-16T21:57:09.522Z,87.40
2017-10-16T22:02:10.613Z,86.90
2017-10-16T22:07:12.683Z,87.50
2017-10-16T22:12:13.746Z,87.10
2017-10-16T22:17:14.809Z,87.20
2017-10-16T22:22:15.861Z,88.10
2017-10-16T22:27:18.670Z,89.00
2017-10-16T22:32:19.722Z,88.90
2017-10-16T22:37:20.791Z,88.90
2017-10-16T22:42:21.835Z,88.40
2017-10-16T22:47:29.676Z,87.90
2017-10-16T22:52:30.698Z,88.20
2017-10-16T22:57:32.486Z,89.00
2017-10-16T23:02:33.545Z,89.00
2017-10-16T23:07:34.713Z,90.00
2017-10-16T23:12:36.777Z,93.10
2017-10-16T23:17:37.853Z,93.40
2017-10-16T23:22:38.920Z,94.80
2017-10-16T23:27:41.153Z,95.60
2017-10-16T23:32:42.273Z,96.90
2017-10-16T23:37:44.343Z,97.80
2017-10-16T23:42:45.390Z,98.10
2017-10-16T23:47:47.537Z,97.50
2017-10-16T23:52:49.541Z,98.20
2017-10-16T23:57:50.625Z,99.20
